Time;durP1;ratioP1;P1;durP2;ratioP2;P2;SDS_P1;SDS_P2;PMS_P1;PMS_P2;Temp;Humidity;BMP_temperature;BMP_pressure;BME280_temperature;BME280_humidity;BME280_pressure;Samples;Min_cycle;Max_cycle;Signal;HPM_P1;HPM_P2
2021/12/14 00:00:43;;;;;;;;;;;1.00;1.40;;;1.97;100.00;96397.66;655005;212;24807;-73
2021/12/14 00:03:24;;;;;;;;;;;1.10;1.40;;;2.04;100.00;96398.69;653574;216;24817;-74
2021/12/14 00:06:06;;;;;;;;;;;1.10;1.40;;;2.12;100.00;96397.23;643040;212;24848;-74
2021/12/14 00:08:54;;;;;;;;;;;1.10;1.40;;;1.90;100.00;96400.78;654013;216;24698;-74
2021/12/14 00:11:56;;;;;;;;;;;1.00;1.40;;;1.91;100.00;96404.50;653047;212;24735;-74
2021/12/14 00:17:36;;;;;;;;;;;1.00;1.40;;;1.96;100.00;96393.61;622794;226;24789;-74
2021/12/14 00:20:17;;;;;;;;;;;1.10;1.40;;;2.12;100.00;96395.77;654296;212;24873;-75
2021/12/14 00:25:55;;;;;;;;;;;1.10;1.40;;;2.06;100.00;96419.37;649064;217;24903;-76
2021/12/14 00:28:36;;;;;;;;;;;1.00;1.40;;;1.95;100.00;96418.99;653277;212;24997;-74
2021/12/14 00:31:21;;;;;;;;;;;1.00;1.40;;;1.92;100.00;96414.56;653822;216;24826;-74
2021/12/14 00:35:51;;;;;;;0.70;0.70;;;1.00;1.40;;;1.87;100.00;96406.52;646346;216;31475;-74
2021/12/14 00:38:35;;;;;;;0.60;0.60;;;1.00;1.40;;;2.00;100.00;96409.66;647723;212;31514;-75
2021/12/14 00:41:15;;;;;;;;;;;1.00;1.40;;;2.00;100.00;96408.59;653069;216;24817;-73
2021/12/14 00:43:59;;;;;;;;;;;1.00;1.40;;;1.95;100.00;96409.21;652897;216;24828;-75
2021/12/14 00:46:41;;;;;;;;;;;1.00;1.40;;;1.95;100.00;96405.04;654458;212;24807;-74
2021/12/14 00:49:23;;;;;;;;;;;1.00;1.40;;;2.04;100.00;96400.67;653850;212;24724;-76
2021/12/14 00:52:04;;;;;;;;;;;1.00;1.40;;;2.02;100.00;96395.44;653146;216;25694;-74
2021/12/14 00:54:49;;;;;;;;;;;1.00;1.40;;;2.00;100.00;96386.93;652506;216;24738;-74
2021/12/14 00:57:32;;;;;;;;;;;1.00;1.40;;;1.96;100.00;96382.31;655462;212;24822;-74
2021/12/14 01:00:14;;;;;;;;;;;1.10;1.40;;;2.06;100.00;96378.59;654134;212;24957;-73
2021/12/14 01:02:58;;;;;;;;;;;1.00;1.40;;;1.93;100.00;96374.23;653993;216;24825;-75
2021/12/14 01:05:40;;;;;;;;;;;1.00;1.40;;;1.93;100.00;96375.52;645483;216;24856;-76
2021/12/14 01:08:21;;;;;;;;;;;1.10;1.40;;;2.07;100.00;96374.63;653112;212;24894;-76
2021/12/14 01:11:08;;;;;;;;;;;1.10;1.40;;;2.01;100.00;96378.48;653542;216;24817;-76
2021/12/14 01:13:57;;;;;;;;;;;1.10;1.40;;;2.01;100.00;96386.09;652783;216;24901;-73
2021/12/14 01:16:50;;;;;;;;;;;1.10;1.40;;;2.00;100.00;96391.69;653473;212;24929;-75
2021/12/14 01:19:24;;;;;;;;;;;1.10;1.40;;;2.00;100.00;96393.97;653465;212;24832;-73
2021/12/14 01:22:17;;;;;;;;;;;1.00;1.40;;;1.95;100.00;96397.12;649191;214;24727;-75
2021/12/14 01:25:02;;;;;;;;;;;1.10;1.40;;;2.02;100.00;96403.76;653593;216;24827;-76
2021/12/14 01:27:47;;;;;;;;;;;1.10;1.40;;;2.05;100.00;96414.58;653658;216;24819;-76
2021/12/14 01:30:34;;;;;;;;;;;1.20;1.40;;;2.04;100.00;96412.38;648586;215;24723;-75
2021/12/14 01:35:52;;;;;;;0.40;0.30;;;1.10;1.40;;;2.11;100.00;96415.58;646527;212;32798;-74
2021/12/14 01:38:35;;;;;;;0.50;0.50;;;1.20;1.40;;;2.06;100.00;96408.28;647135;212;31517;-76
2021/12/14 01:41:17;;;;;;;0.40;0.30;;;1.10;1.40;;;2.06;100.00;96407.80;646139;212;31565;-74
2021/12/14 01:43:59;;;;;;;;;;;1.10;1.40;;;2.13;100.00;96414.45;653831;212;24838;-74
2021/12/14 01:46:40;;;;;;;;;;;1.20;1.40;;;2.12;100.00;96415.04;652706;212;25374;-73
2021/12/14 01:49:22;;;;;;;;;;;1.10;1.40;;;2.14;100.00;96412.57;654163;212;25264;-73
2021/12/14 01:52:03;;;;;;;;;;;1.20;1.40;;;2.19;100.00;96420.98;654291;216;24810;-74
2021/12/14 01:54:47;;;;;;;;;;;1.10;1.40;;;2.14;100.00;96414.76;653382;212;24778;-76
2021/12/14 01:57:29;;;;;;;;;;;1.10;1.40;;;2.03;100.00;96413.91;654494;212;25301;-75
2021/12/14 02:00:11;;;;;;;;;;;1.10;1.40;;;2.13;100.00;96419.33;653886;216;24838;-74
2021/12/14 02:02:53;;;;;;;;;;;1.10;1.40;;;2.14;100.00;96414.76;653498;212;24812;-76
2021/12/14 02:05:34;;;;;;;;;;;1.20;1.40;;;2.17;100.00;96415.52;653230;216;24822;-76
2021/12/14 02:08:17;;;;;;;;;;;1.10;1.40;;;2.04;100.00;96416.97;652686;216;24803;-74
2021/12/14 02:11:01;;;;;;;;;;;1.10;1.40;;;1.91;100.00;96416.78;652891;216;24819;-76
2021/12/14 02:13:43;;;;;;;;;;;1.00;1.40;;;1.83;100.00;96413.06;653918;216;24732;-76
2021/12/14 02:16:24;;;;;;;;;;;0.90;1.40;;;1.77;100.00;96415.96;652087;212;24747;-76
2021/12/14 02:19:10;;;;;;;;;;;0.90;1.40;;;1.84;100.00;96423.31;638432;221;25508;-75
2021/12/14 02:21:50;;;;;;;;;;;1.00;1.40;;;1.79;100.00;96413.50;650118;215;25179;-76
2021/12/14 02:24:33;;;;;;;;;;;0.90;1.40;;;1.76;100.00;96411.70;652710;216;24762;-75
2021/12/14 02:27:14;;;;;;;;;;;1.00;1.40;;;1.81;100.00;96403.72;653683;212;24812;-74
2021/12/14 02:29:56;;;;;;;;;;;1.00;1.40;;;1.77;100.00;96408.27;653508;212;25345;-74
2021/12/14 02:32:38;;;;;;;;;;;1.00;1.40;;;1.80;100.00;96409.45;653581;216;25313;-76
2021/12/14 02:35:52;;;;;;;0.70;0.60;;;0.90;1.40;;;1.73;100.00;96402.84;619073;226;32089;-75
2021/12/14 02:38:33;;;;;;;0.90;0.70;;;0.90;1.40;;;1.83;100.00;96406.66;648117;216;42212;-76
2021/12/14 02:41:15;;;;;;;0.50;0.40;;;1.00;1.40;;;1.85;100.00;96400.71;646457;212;31480;-75
2021/12/14 02:43:56;;;;;;;;;;;1.00;1.40;;;1.80;100.00;96395.30;653502;216;24819;-76
2021/12/14 02:46:38;;;;;;;;;;;0.90;1.40;;;1.80;100.00;96399.41;653318;212;24930;-75
2021/12/14 02:49:19;;;;;;;;;;;0.80;1.40;;;1.73;100.00;96390.88;653436;216;24837;-76
2021/12/14 02:52:00;;;;;;;;;;;0.90;1.40;;;1.75;100.00;96392.33;653959;212;24816;-75
2021/12/14 02:54:42;;;;;;;;;;;0.90;1.40;;;1.81;100.00;96397.84;654049;216;24826;-77
2021/12/14 02:57:23;;;;;;;;;;;1.00;1.40;;;1.84;100.00;96392.09;653373;216;24815;-75
2021/12/14 03:00:05;;;;;;;;;;;0.90;1.40;;;1.80;100.00;96387.22;649828;215;24952;-76
2021/12/14 03:02:48;;;;;;;;;;;0.80;1.40;;;1.70;100.00;96383.26;653677;216;24935;-75
2021/12/14 03:05:33;;;;;;;;;;;0.80;1.40;;;1.68;100.00;96385.38;653903;216;24819;-75
2021/12/14 03:08:18;;;;;;;;;;;0.80;1.40;;;1.69;100.00;96383.55;638495;217;24872;-75
2021/12/14 03:11:09;;;;;;;;;;;0.80;1.40;;;1.69;100.00;96393.59;653271;216;25390;-77
2021/12/14 03:13:43;;;;;;;;;;;0.80;1.40;;;1.75;100.00;96395.53;653250;216;24811;-77
2021/12/14 03:16:25;;;;;;;;;;;0.90;1.40;;;1.77;100.00;96391.27;653453;212;24943;-77
2021/12/14 03:19:06;;;;;;;;;;;0.80;1.40;;;1.79;100.00;96396.59;653833;212;24819;-75
2021/12/14 03:21:49;;;;;;;;;;;0.90;1.40;;;1.73;100.00;96399.95;654417;216;24828;-75
2021/12/14 03:24:30;;;;;;;;;;;0.80;1.40;;;1.76;100.00;96393.09;653637;212;24805;-75
2021/12/14 03:27:11;;;;;;;;;;;0.90;1.40;;;1.77;100.00;96397.98;653452;212;24823;-75
2021/12/14 03:29:53;;;;;;;;;;;0.90;1.40;;;1.72;100.00;96401.86;649621;214;24835;-77
2021/12/14 03:32:34;;;;;;;;;;;0.90;1.40;;;1.74;100.00;96398.59;649899;217;24733;-77
2021/12/14 03:35:51;;;;;;;0.40;0.40;;;0.90;1.40;;;1.70;100.00;96408.49;645373;212;31512;-76
2021/12/14 03:38:37;;;;;;;0.40;0.40;;;0.80;1.40;;;1.69;100.00;96400.55;648650;216;42108;-75
2021/12/14 03:41:28;;;;;;;0.70;0.60;;;0.80;1.40;;;1.62;100.00;96403.68;647414;216;32029;-76
2021/12/14 03:44:12;;;;;;;;;;;0.80;1.40;;;1.57;100.00;96405.95;653527;212;24832;-75
2021/12/14 03:46:57;;;;;;;;;;;0.80;1.40;;;1.55;100.00;96404.03;653255;212;24834;-76
2021/12/14 03:49:42;;;;;;;;;;;0.70;1.40;;;1.55;100.00;96408.30;638195;217;25238;-75
2021/12/14 03:52:26;;;;;;;;;;;0.80;1.40;;;1.65;100.00;96407.89;654103;212;24798;-74
2021/12/14 03:55:09;;;;;;;;;;;0.80;1.40;;;1.52;100.00;96408.75;653155;216;24811;-76
2021/12/14 03:57:50;;;;;;;;;;;0.70;1.40;;;1.42;100.00;96410.27;652905;216;25409;-76
2021/12/14 04:00:31;;;;;;;;;;;0.70;1.40;;;1.46;100.00;96409.73;653262;216;24929;-75
2021/12/14 04:03:15;;;;;;;;;;;0.70;1.40;;;1.45;100.00;96404.30;653710;216;24760;-75
2021/12/14 04:05:55;;;;;;;;;;;0.70;1.40;;;1.55;100.00;96404.45;643492;216;24787;-75
2021/12/14 04:08:43;;;;;;;;;;;0.70;1.40;;;1.58;100.00;96400.95;654195;212;24871;-75
2021/12/14 04:11:32;;;;;;;;;;;0.70;1.40;;;1.48;100.00;96392.80;653786;216;24913;-76
2021/12/14 04:14:11;;;;;;;;;;;0.60;1.40;;;1.41;100.00;96391.27;622403;227;25535;-75
2021/12/14 04:16:53;;;;;;;;;;;0.60;1.40;;;1.39;100.00;96394.67;652941;212;25090;-74
2021/12/14 04:19:36;;;;;;;;;;;0.60;1.40;;;1.42;100.00;96398.02;650061;216;24822;-77
2021/12/14 04:22:16;;;;;;;;;;;0.60;1.40;;;1.30;100.00;96400.36;649296;216;24830;-75
2021/12/14 04:25:00;;;;;;;;;;;0.50;1.40;;;1.24;100.00;96403.48;653085;212;24777;-75
2021/12/14 04:27:43;;;;;;;;;;;0.40;1.40;;;1.17;100.00;96401.55;653893;212;24816;-77
2021/12/14 04:30:23;;;;;;;;;;;0.40;1.40;;;1.12;100.00;96396.10;649272;215;24733;-75
2021/12/14 04:35:52;;;;;;;1.50;0.80;;;0.40;1.40;;;1.06;100.00;96378.48;646759;216;31503;-75
2021/12/14 04:38:42;;;;;;;0.60;0.60;;;0.30;1.40;;;1.11;100.00;96376.12;646217;216;31484;-75
2021/12/14 04:52:31;;;;;;;;;;;0.10;1.40;;;0.88;100.00;96368.30;653514;216;24759;-75
2021/12/14 04:55:12;;;;;;;;;;;0.00;1.40;;;0.79;100.00;96371.42;622509;224;24883;-74
2021/12/14 04:57:56;;;;;;;;;;;0.00;1.40;;;0.75;100.00;96377.64;648053;217;24752;-75
2021/12/14 05:00:39;;;;;;;;;;;0.00;1.40;;;0.78;100.00;96374.56;622565;225;24902;-75
2021/12/14 05:03:24;;;;;;;;;;;0.00;1.40;;;0.74;100.00;96368.44;653965;216;24850;-75
2021/12/14 05:06:17;;;;;;;;;;;-0.10;1.40;;;0.63;100.00;96372.30;653769;213;25205;-74
2021/12/14 05:11:47;;;;;;;;;;;-0.30;1.40;;;0.51;100.00;96372.27;653653;212;24985;-76
2021/12/14 05:14:28;;;;;;;;;;;-0.30;1.40;;;0.49;100.00;96370.18;622696;226;24871;-76
2021/12/14 05:17:09;;;;;;;;;;;-0.30;1.40;;;0.47;100.00;96376.79;653269;216;24823;-74
2021/12/14 05:19:51;;;;;;;;;;;-0.30;1.40;;;0.51;100.00;96384.02;654204;212;24808;-76
2021/12/14 05:22:33;;;;;;;;;;;-0.40;1.40;;;0.56;100.00;96381.81;653455;216;24844;-76
2021/12/14 05:25:21;;;;;;;;;;;-0.40;1.40;;;0.56;100.00;96386.24;653317;212;24742;-76
2021/12/14 05:28:04;;;;;;;;;;;-0.40;1.40;;;0.50;100.00;96385.63;653946;216;24888;-75
2021/12/14 05:30:52;;;;;;;;;;;-0.40;1.40;;;0.59;100.00;96385.25;653291;216;24813;-73
2021/12/14 05:35:57;;;;;;;0.40;0.30;;;-0.40;1.40;;;0.56;100.00;96369.59;616024;227;32152;-73
2021/12/14 05:38:54;;;;;;;0.98;0.65;;;-0.30;1.40;;;0.53;100.00;96369.56;647157;216;42181;-76
2021/12/14 05:44:23;;;;;;;;;;;-0.30;1.40;;;0.54;100.00;96366.83;654509;212;24735;-74
2021/12/14 05:47:10;;;;;;;;;;;-0.30;1.40;;;0.53;100.00;96370.05;652709;212;24913;-75
2021/12/14 05:49:52;;;;;;;;;;;-0.30;1.40;;;0.54;100.00;96368.53;655292;212;24816;-75
2021/12/14 05:52:36;;;;;;;;;;;-0.30;1.40;;;0.46;100.00;96370.41;655446;216;24773;-74
2021/12/14 05:55:20;;;;;;;;;;;-0.30;1.40;;;0.39;100.00;96363.53;653266;216;24839;-73
2021/12/14 05:58:01;;;;;;;;;;;-0.40;1.40;;;0.42;100.00;96364.42;653142;216;24830;-76
2021/12/14 06:00:49;;;;;;;;;;;-0.40;1.40;;;0.45;100.00;96365.86;654093;212;24806;-73
2021/12/14 06:03:32;;;;;;;;;;;-0.40;1.40;;;0.53;100.00;96366.74;653242;216;24840;-76
2021/12/14 06:06:14;;;;;;;;;;;-0.40;1.40;;;0.50;100.00;96360.02;643911;212;25416;-74
2021/12/14 06:09:00;;;;;;;;;;;-0.40;1.40;;;0.44;100.00;96352.75;648914;217;24734;-75
2021/12/14 06:11:41;;;;;;;;;;;-0.40;1.40;;;0.40;100.00;96352.47;621601;224;24906;-75
2021/12/14 06:14:23;;;;;;;;;;;-0.40;1.40;;;0.53;100.00;96345.20;654265;216;24997;-74
2021/12/14 06:17:04;;;;;;;;;;;-0.50;1.40;;;0.39;100.00;96342.13;654434;216;24731;-75
2021/12/14 06:19:47;;;;;;;;;;;-0.50;1.40;;;0.37;100.00;96341.28;653750;212;24811;-75
2021/12/14 06:22:28;;;;;;;;;;;-0.50;1.40;;;0.35;100.00;96339.05;654266;216;24874;-75
2021/12/14 06:25:09;;;;;;;;;;;-0.50;1.40;;;0.36;100.00;96335.40;653531;216;24902;-74
2021/12/14 06:27:57;;;;;;;;;;;-0.50;1.40;;;0.36;100.00;96338.80;651802;216;24845;-75
2021/12/14 06:30:41;;;;;;;;;;;-0.60;1.40;;;0.33;100.00;96337.26;652758;212;24814;-73
2021/12/14 06:35:53;;;;;;;1.20;0.80;;;-0.60;1.40;;;0.23;100.00;96337.48;647290;216;31507;-76
2021/12/14 06:38:42;;;;;;;0.47;0.47;;;-0.50;1.40;;;0.23;100.00;96334.44;632118;221;31743;-76
2021/12/14 06:41:24;;;;;;;;;;;-0.50;1.40;;;0.27;100.00;96330.25;653648;212;25459;-77
2021/12/14 06:44:09;;;;;;;;;;;-0.40;1.40;;;0.26;100.00;96327.63;653668;216;25445;-74
2021/12/14 06:46:50;;;;;;;;;;;-0.40;1.40;;;0.28;100.00;96320.00;654120;216;24905;-75
2021/12/14 06:49:34;;;;;;;;;;;-0.40;1.40;;;0.28;100.00;96318.20;654093;216;24967;-76
2021/12/14 06:52:16;;;;;;;;;;;-0.40;1.40;;;0.27;100.00;96313.34;654379;212;25354;-75
2021/12/14 06:54:57;;;;;;;;;;;-0.40;1.40;;;0.28;100.00;96318.81;654596;216;24904;-75
2021/12/14 06:57:38;;;;;;;;;;;-0.40;1.40;;;0.30;100.00;96316.17;653005;216;24892;-76
2021/12/14 07:00:19;;;;;;;;;;;-0.40;1.40;;;0.33;100.00;96310.54;652844;212;24893;-75
2021/12/14 07:03:01;;;;;;;;;;;-0.40;1.40;;;0.36;100.00;96315.17;653191;212;24898;-73
2021/12/14 07:05:46;;;;;;;;;;;-0.40;1.40;;;0.43;100.00;96310.04;653096;212;25676;-76
2021/12/14 07:08:27;;;;;;;;;;;-0.30;1.40;;;0.51;100.00;96309.22;654647;212;24895;-76
2021/12/14 07:11:11;;;;;;;;;;;-0.40;1.40;;;0.53;100.00;96314.15;654674;212;24860;-76
2021/12/14 07:13:53;;;;;;;;;;;-0.30;1.40;;;0.59;100.00;96315.80;653319;216;24932;-76
2021/12/14 07:16:37;;;;;;;;;;;-0.30;1.40;;;0.71;100.00;96319.16;653037;212;24860;-75
2021/12/14 07:19:43;;;;;;;;;;;-0.20;1.40;;;0.78;100.00;96320.77;652872;216;24974;-74
2021/12/14 07:22:42;;;;;;;;;;;-0.20;1.40;;;0.72;100.00;96320.23;648967;216;24878;-76
2021/12/14 07:25:31;;;;;;;;;;;-0.20;1.40;;;0.82;100.00;96329.97;653559;212;25037;-76
2021/12/14 07:28:13;;;;;;;;;;;-0.20;1.40;;;0.94;100.00;96332.80;654204;212;25126;-76
2021/12/14 07:30:57;;;;;;;;;;;-0.10;1.40;;;1.14;100.00;96335.75;650149;216;24870;-76
2021/12/14 07:35:55;;;;;;;0.88;0.80;;;0.10;1.40;;;1.21;100.00;96333.94;647679;216;33496;-75
2021/12/14 07:38:45;;;;;;;0.62;0.62;;;0.20;1.40;;;1.29;100.00;96337.74;646431;212;31528;-75
2021/12/14 07:41:33;;;;;;;1.60;1.50;;;0.30;1.40;;;1.37;100.00;96342.25;648203;212;31673;-76
2021/12/14 07:44:16;;;;;;;0.88;0.80;;;0.20;1.40;;;1.51;100.00;96354.45;645101;216;31484;-76
2021/12/14 07:46:59;;;;;;;;;;;0.30;1.40;;;1.61;100.00;96351.17;654196;212;24814;-75
2021/12/14 07:49:41;;;;;;;;;;;0.30;1.40;;;1.58;100.00;96356.54;653255;213;25276;-76
2021/12/14 07:52:26;;;;;;;;;;;0.30;1.40;;;1.57;100.00;96362.45;653088;212;24823;-76
2021/12/14 07:55:11;;;;;;;;;;;0.20;1.40;;;1.72;100.00;96364.92;653443;216;24912;-76
2021/12/14 07:57:55;;;;;;;;;;;0.20;1.40;;;1.80;100.00;96370.38;654261;216;25258;-76
2021/12/14 08:00:40;;;;;;;;;;;0.30;1.40;;;1.84;100.00;96367.91;621705;226;25830;-76
2021/12/14 08:03:28;;;;;;;;;;;0.40;1.40;;;1.85;100.00;96367.34;653079;216;24824;-74
2021/12/14 08:06:09;;;;;;;;;;;0.40;1.40;;;1.90;100.00;96377.14;647682;216;24766;-75
2021/12/14 08:08:54;;;;;;;;;;;0.50;1.40;;;1.97;100.00;96374.59;653411;216;24848;-74
2021/12/14 08:11:47;;;;;;;;;;;0.50;1.40;;;1.94;100.00;96378.31;654042;212;24807;-77
2021/12/14 08:14:21;;;;;;;;;;;0.60;1.40;;;1.90;100.00;96366.17;654496;213;25474;-75
2021/12/14 08:17:05;;;;;;;;;;;0.60;1.40;;;1.88;100.00;96363.29;648461;214;24855;-77
2021/12/14 08:19:48;;;;;;;;;;;0.50;1.40;;;1.79;100.00;96354.03;655182;212;24819;-77
2021/12/14 08:22:34;;;;;;;;;;;0.50;1.40;;;1.89;100.00;96353.11;653304;212;24836;-72
2021/12/14 08:25:15;;;;;;;;;;;0.70;1.40;;;2.07;100.00;96355.73;649518;216;24804;-75
2021/12/14 08:28:00;;;;;;;;;;;0.80;1.40;;;2.37;100.00;96358.65;653199;212;24838;-73
2021/12/14 08:30:41;;;;;;;;;;;1.00;1.40;;;2.15;100.00;96360.70;653127;216;25254;-73
2021/12/14 08:35:57;;;;;;;0.90;0.90;;;0.80;1.40;;;2.10;100.00;96361.48;646463;216;31465;-75
2021/12/14 08:38:39;;;;;;;0.70;0.60;;;1.00;1.40;;;2.36;100.00;96359.81;616685;222;31906;-75
2021/12/14 08:41:25;;;;;;;0.90;0.77;;;1.10;1.40;;;2.77;100.00;96365.55;619691;222;31854;-77
2021/12/14 08:44:11;;;;;;;;;;;1.50;1.40;;;3.13;100.00;96363.73;653696;216;25559;-73
2021/12/14 08:46:57;;;;;;;;;;;1.70;1.40;;;3.16;100.00;96352.33;654159;216;24743;-75
2021/12/14 08:49:40;;;;;;;;;;;1.60;1.40;;;3.09;100.00;96345.53;654233;212;24850;-74
2021/12/14 08:52:27;;;;;;;;;;;1.30;1.40;;;2.59;100.00;96335.14;653204;216;24800;-77
2021/12/14 08:55:09;;;;;;;;;;;1.20;1.40;;;2.52;100.00;96341.02;654765;212;24810;-76
2021/12/14 08:57:50;;;;;;;;;;;1.30;1.40;;;2.36;100.00;96339.43;655150;212;24806;-75
2021/12/14 09:00:34;;;;;;;;;;;1.10;1.40;;;2.39;100.00;96338.16;652874;212;24826;-76
2021/12/14 09:03:16;;;;;;;;;;;1.10;1.40;;;2.36;100.00;96332.56;652955;216;24826;-76
2021/12/14 09:05:57;;;;;;;;;;;1.10;1.40;;;2.31;100.00;96335.41;643723;216;24963;-77
2021/12/14 09:08:38;;;;;;;;;;;1.10;1.40;;;2.27;100.00;96335.41;649020;215;24862;-76
2021/12/14 09:11:20;;;;;;;;;;;1.20;1.40;;;2.23;100.00;96329.88;653495;212;25242;-77
2021/12/14 09:14:13;;;;;;;;;;;1.20;1.40;;;2.35;100.00;96332.77;654039;212;24723;-75
2021/12/14 09:16:57;;;;;;;;;;;1.40;1.40;;;2.37;100.00;96331.54;649975;216;24808;-77
2021/12/14 09:19:40;;;;;;;;;;;1.40;1.40;;;2.58;100.00;96323.28;653159;216;24741;-77
2021/12/14 09:22:28;;;;;;;;;;;1.70;1.40;;;2.79;100.00;96312.36;652973;212;24826;-75
2021/12/14 09:25:11;;;;;;;;;;;1.70;1.40;;;2.81;100.00;96313.03;652628;212;24907;-77
2021/12/14 09:27:53;;;;;;;;;;;1.70;1.40;;;2.96;100.00;96323.33;648959;216;24934;-76
2021/12/14 09:30:34;;;;;;;;;;;2.00;1.40;;;3.14;100.00;96312.16;622667;225;24917;-77
2021/12/14 09:35:53;;;;;;;0.60;0.30;;;2.60;1.40;;;3.94;100.00;96290.41;647229;216;31561;-76
2021/12/14 09:38:40;;;;;;;1.40;1.30;;;3.00;1.40;;;4.65;100.00;96274.81;646923;212;32102;-77
2021/12/14 09:41:18;;;;;;;1.60;1.12;;;3.90;1.40;;;5.52;100.00;96276.88;646548;216;32771;-78
2021/12/14 09:43:59;;;;;;;0.50;0.50;;;4.10;1.40;;;6.36;100.00;96287.22;619528;226;31938;-77
2021/12/14 09:46:44;;;;;;;1.40;0.90;;;4.30;1.40;;;6.57;100.00;96303.52;618817;226;32090;-76
2021/12/14 09:49:34;;;;;;;0.65;0.65;;;4.00;1.40;;;5.78;100.00;96299.65;641241;216;31625;-74
2021/12/14 09:52:22;;;;;;;0.60;0.60;;;3.70;1.40;;;6.11;100.00;96288.23;647194;213;31535;-78
2021/12/14 09:55:08;;;;;;;0.50;0.40;;;3.90;1.40;;;5.62;100.00;96291.32;646816;212;31501;-74
2021/12/14 09:57:56;;;;;;;7.00;0.70;;;3.60;1.40;;;5.93;100.00;96295.73;646812;216;31487;-78
2021/12/14 10:00:42;;;;;;;0.50;0.40;;;4.40;1.40;;;7.36;100.00;96295.79;647005;212;31542;-78
2021/12/14 10:03:30;;;;;;;1.00;1.00;;;6.30;1.40;;;9.91;100.00;96305.94;646524;212;32294;-74
2021/12/14 10:06:13;;;;;;;1.10;0.80;;;8.60;1.40;;;12.09;100.00;96311.20;636499;216;31684;-76
2021/12/14 10:08:59;;;;;;;3.10;0.97;;;10.00;1.40;;;13.62;100.00;96310.28;646579;212;31562;-76
2021/12/14 10:11:43;;;;;;;1.87;1.40;;;10.80;1.40;;;15.21;100.00;96304.28;619096;222;38019;-77
2021/12/14 10:14:23;;;;;;;1.73;1.40;;;11.70;1.40;;;17.51;100.00;96302.38;646610;212;31567;-78
2021/12/14 10:17:05;;;;;;;8.97;5.83;;;12.20;1.40;;;18.46;94.57;96297.76;648191;216;31548;-76
2021/12/14 10:19:52;;;;;;;2.40;1.40;;;12.30;1.40;;;16.57;86.23;96298.19;646836;216;31550;-76
2021/12/14 10:22:40;;;;;;;1.00;0.80;;;9.50;1.40;;;17.85;100.00;96302.67;646459;212;31592;-77
2021/12/14 10:25:22;;;;;;;1.45;0.80;;;10.90;1.40;;;17.62;100.00;96293.84;618859;226;32427;-75
2021/12/14 10:28:04;;;;;;;1.00;0.80;;;11.10;1.40;;;17.51;100.00;96298.23;646874;212;31647;-76
2021/12/14 10:30:46;;;;;;;0.80;0.70;;;10.70;1.40;;;17.34;90.88;96302.31;647992;216;32265;-75
2021/12/14 10:35:59;;;;;;;0.80;0.70;;;10.90;1.40;;;15.02;92.06;96303.97;615468;226;31840;-76
2021/12/14 10:39:01;;;;;;;1.67;1.27;;;10.10;1.40;;;14.94;98.18;96297.74;646972;216;31497;-75
2021/12/14 10:44:13;;;;;;;0.50;0.40;;;9.00;1.40;;;12.34;100.00;96309.56;619823;226;31861;-76
2021/12/14 10:46:56;;;;;;;1.00;0.60;;;7.80;1.40;;;12.11;100.00;96309.64;646793;212;31512;-76
2021/12/14 10:49:38;;;;;;;0.70;0.50;;;7.50;1.40;;;12.78;100.00;96303.70;646752;216;31672;-75
2021/12/14 10:52:19;;;;;;;0.80;0.70;;;8.80;1.40;;;13.29;100.00;96311.03;646662;216;31494;-76
2021/12/14 10:55:01;;;;;;;0.50;0.40;;;9.50;1.40;;;15.81;100.00;96295.66;647107;216;31473;-76
2021/12/14 10:57:42;;;;;;;0.77;0.47;;;12.50;1.40;;;17.78;88.73;96299.30;646498;216;31508;-77
2021/12/14 11:00:30;;;;;;;0.57;0.57;;;13.20;1.40;;;19.00;82.37;96292.89;618736;222;42459;-77
2021/12/14 11:03:10;;;;;;;0.70;0.50;;;14.20;1.40;;;19.33;69.78;96290.55;648082;216;33576;-75
2021/12/14 11:05:51;;;;;;;0.70;0.60;;;12.10;1.40;;;19.59;87.19;96299.98;639295;216;31885;-75
2021/12/14 11:08:41;;;;;;;0.70;0.57;;;12.70;1.40;;;17.84;87.37;96302.78;646062;216;31482;-75
2021/12/14 11:11:19;;;;;;;0.70;0.60;;;11.00;1.40;;;18.09;90.35;96307.05;647704;216;31570;-75
2021/12/14 11:14:00;;;;;;;1.27;0.60;;;10.80;1.40;;;18.58;86.04;96306.25;646733;212;31498;-76
2021/12/14 11:19:10;;;;;;;0.60;0.50;;;12.90;1.40;;;19.41;83.45;96309.39;647343;216;31499;-75
2021/12/14 11:21:52;;;;;;;0.70;0.60;;;13.20;1.40;;;19.10;68.86;96309.83;648026;212;31566;-77
2021/12/14 11:24:34;;;;;;;0.98;0.68;;;13.20;1.40;;;16.90;76.64;96312.73;647367;216;31587;-76
2021/12/14 11:27:17;;;;;;;1.20;0.80;;;10.70;1.40;;;14.40;82.88;96322.77;647603;212;34551;-77
2021/12/14 11:30:09;;;;;;;1.03;0.80;;;9.70;1.40;;;13.56;96.80;96312.45;647317;212;31519;-76
2021/12/14 11:33:02;;;;;;;0.83;0.50;;;9.70;1.40;;;13.95;93.90;96310.11;637958;217;31661;-77
2021/12/14 11:35:55;;;;;;;1.00;0.60;;;12.30;1.40;;;14.56;87.76;96312.80;647187;212;32082;-76
2021/12/14 11:38:39;;;;;;;0.88;0.70;;;10.70;1.40;;;12.68;97.95;96314.97;616573;230;31913;-75
2021/12/14 11:41:48;;;;;;;1.10;0.60;;;9.20;1.40;;;11.77;100.00;96313.16;645853;212;31471;-75
2021/12/14 11:44:29;;;;;;;2.62;1.10;;;8.60;1.40;;;10.51;100.00;96311.08;646805;216;31500;-75
2021/12/14 11:47:42;;;;;;;0.80;0.70;;;7.50;1.40;;;9.82;100.00;96323.39;649093;212;31516;-76
2021/12/14 11:50:19;;;;;;;1.10;0.80;;;7.20;1.40;;;8.99;100.00;96325.27;646641;212;32072;-76
2021/12/14 11:53:18;;;;;;;1.00;0.87;;;6.80;1.40;;;8.17;100.00;96320.60;620458;226;32085;-74
2021/12/14 11:56:01;;;;;;;1.30;1.10;;;6.40;1.40;;;7.70;100.00;96319.02;648194;212;31485;-76
2021/12/14 11:58:44;;;;;;;1.00;0.90;;;6.30;1.40;;;7.64;100.00;96312.26;645328;216;31563;-75
2021/12/14 12:01:45;;;;;;;0.83;0.60;;;6.30;1.40;;;7.87;100.00;96309.60;645668;216;42793;-76
2021/12/14 12:04:32;;;;;;;1.10;0.83;;;6.40;1.40;;;8.18;100.00;96318.28;647908;216;31524;-76
2021/12/14 12:09:42;;;;;;;1.05;0.93;;;6.60;1.40;;;8.38;100.00;96329.41;646685;212;31575;-76
2021/12/14 12:12:33;;;;;;;1.30;1.20;;;6.70;1.40;;;8.45;100.00;96334.83;620606;226;31910;-76
2021/12/14 12:15:16;;;;;;;1.20;0.90;;;6.70;1.40;;;8.12;100.00;96328.38;647107;216;31503;-76
2021/12/14 12:17:56;;;;;;;0.87;0.70;;;6.40;1.40;;;7.80;100.00;96327.37;646046;212;32103;-76
2021/12/14 12:20:39;;;;;;;1.50;1.00;;;6.20;1.40;;;7.45;100.00;96331.84;647158;216;31649;-76
2021/12/14 12:23:21;;;;;;;1.10;0.93;;;5.90;1.40;;;7.36;100.00;96330.11;648532;216;31526;-76
2021/12/14 12:26:08;;;;;;;1.43;0.97;;;5.90;1.40;;;7.51;100.00;96332.41;648004;216;31566;-74
2021/12/14 12:28:46;;;;;;;1.00;0.90;;;5.90;1.40;;;7.37;100.00;96331.73;649089;216;31500;-75
2021/12/14 12:31:25;;;;;;;1.30;0.90;;;5.90;1.40;;;7.58;100.00;96331.31;649065;216;31567;-76
2021/12/14 12:36:09;;;;;;;1.52;1.40;;;5.90;1.40;;;7.78;100.00;96329.84;638011;217;31701;-76
2021/12/14 12:41:51;;;;;;;1.30;1.20;;;5.90;1.40;;;7.39;100.00;96328.72;648700;216;31682;-74
2021/12/14 12:44:37;;;;;;;1.60;1.47;;;5.80;1.40;;;7.39;100.00;96324.56;645015;216;31626;-74
2021/12/14 12:47:17;;;;;;;0.80;0.80;;;5.70;1.40;;;7.31;100.00;96327.55;621835;225;32525;-74
2021/12/14 12:49:59;;;;;;;1.20;1.10;;;5.70;1.40;;;7.39;100.00;96323.16;645469;216;31472;-74
2021/12/14 12:52:41;;;;;;;1.60;1.50;;;5.80;1.40;;;7.32;100.00;96320.75;648395;216;31558;-74
2021/12/14 12:55:30;;;;;;;1.97;1.50;;;5.80;1.40;;;7.14;100.00;96315.34;649358;216;31521;-75
2021/12/14 12:58:12;;;;;;;2.05;1.70;;;5.50;1.40;;;7.12;100.00;96315.66;632344;221;31772;-76
2021/12/14 13:00:56;;;;;;;1.40;1.08;;;5.50;1.40;;;7.39;100.00;96315.06;648604;216;31491;-74
2021/12/14 13:03:38;;;;;;;1.50;1.23;;;5.80;1.40;;;7.03;100.00;96313.58;648035;216;31545;-74
2021/12/14 13:06:21;;;;;;;2.37;1.53;;;5.60;1.40;;;7.09;100.00;96310.89;639296;212;31801;-76
2021/12/14 13:09:01;;;;;;;2.60;2.00;;;5.70;1.40;;;7.14;100.00;96306.66;645641;212;32125;-75
2021/12/14 13:11:43;;;;;;;1.80;1.63;;;5.70;1.40;;;7.01;100.00;96306.23;620995;226;31953;-76
2021/12/14 13:14:25;;;;;;;3.40;2.20;;;5.60;1.40;;;7.09;100.00;96304.64;649256;216;32061;-76
2021/12/14 13:17:07;;;;;;;1.02;0.70;;;5.60;1.40;;;6.77;100.00;96300.02;650412;212;43515;-75
2021/12/14 13:19:57;;;;;;;2.30;1.10;;;5.30;1.40;;;6.40;100.00;96299.74;648764;216;42162;-74